sensor_id;sensor_type;location;lat;lon;timestamp;pressure;altitude;pressure_sealevel;temperature;humidity
7930;BME280;4010;42.698;23.124;2023-06-04T00:02:10;33523.72;;;-140.64;100.00
7930;BME280;4010;42.698;23.124;2023-06-04T00:04:37;35323.13;;;-140.64;100.00
7930;BME280;4010;42.698;23.124;2023-06-04T00:07:04;35066.00;;;-140.64;100.00
7930;BME280;4010;42.698;23.124;2023-06-04T00:09:31;34551.84;;;-140.64;100.00
7930;BME280;4010;42.698;23.124;2023-06-04T00:11:59;34551.84;;;-140.64;100.00
7930;BME280;4010;42.698;23.124;2023-06-04T00:14:26;34294.78;;;-140.64;100.00
7930;BME280;4010;42.698;23.124;2023-06-04T00:16:53;34551.84;;;-140.64;100.00
7930;BME280;4010;42.698;23.124;2023-06-04T00:19:19;35066.00;;;-140.64;100.00
7930;BME280;4010;42.698;23.124;2023-06-04T00:21:46;36094.59;;;-140.64;100.00
7930;BME280;4010;42.698;23.124;2023-06-04T00:24:13;35837.44;;;-140.64;100.00
7930;BME280;4010;42.698;23.124;2023-06-04T00:26:39;33780.72;;;-140.64;100.00
7930;BME280;4010;42.698;23.124;2023-06-04T00:29:08;34037.75;;;-140.64;100.00
7930;BME280;4010;42.698;23.124;2023-06-04T00:31:34;33523.72;;;-140.64;100.00
7930;BME280;4010;42.698;23.124;2023-06-04T00:34:03;32495.91;;;-140.64;100.00
7930;BME280;4010;42.698;23.124;2023-06-04T00:36:30;31982.13;;;-140.64;100.00
7930;BME280;4010;42.698;23.124;2023-06-04T00:38:57;33266.75;;;-140.64;100.00
7930;BME280;4010;42.698;23.124;2023-06-04T00:41:23;36866.25;;;-140.64;100.00
7930;BME280;4010;42.698;23.124;2023-06-04T00:43:50;38152.72;;;-140.64;100.00
7930;BME280;4010;42.698;23.124;2023-06-04T00:46:23;38152.72;;;-140.64;100.00
7930;BME280;4010;42.698;23.124;2023-06-04T00:48:51;38667.47;;;-140.64;100.00
7930;BME280;4010;42.698;23.124;2023-06-04T00:51:18;36094.59;;;-140.64;100.00
7930;BME280;4010;42.698;23.124;2023-06-04T00:53:45;35580.28;;;-140.64;100.00
7930;BME280;4010;42.698;23.124;2023-06-04T00:56:12;34037.75;;;-140.64;100.00
7930;BME280;4010;42.698;23.124;2023-06-04T00:58:39;32752.84;;;-140.64;100.00
7930;BME280;4010;42.698;23.124;2023-06-04T01:01:10;36351.81;;;-140.64;100.00
7930;BME280;4010;42.698;23.124;2023-06-04T01:03:42;35066.00;;;-140.64;100.00
7930;BME280;4010;42.698;23.124;2023-06-04T01:06:16;36094.59;;;-140.64;100.00
7930;BME280;4010;42.698;23.124;2023-06-04T01:08:46;36094.59;;;-140.64;100.00
7930;BME280;4010;42.698;23.124;2023-06-04T01:11:15;37638.09;;;-140.64;100.00
7930;BME280;4010;42.698;23.124;2023-06-04T01:13:41;37638.09;;;-140.64;100.00
7930;BME280;4010;42.698;23.124;2023-06-04T01:16:10;37380.78;;;-140.64;100.00
7930;BME280;4010;42.698;23.124;2023-06-04T01:18:40;35837.44;;;-140.64;100.00
7930;BME280;4010;42.698;23.124;2023-06-04T01:21:10;34037.75;;;-140.64;100.00
7930;BME280;4010;42.698;23.124;2023-06-04T01:23:46;32495.91;;;-140.64;100.00
7930;BME280;4010;42.698;23.124;2023-06-04T01:26:14;31211.63;;;-140.64;100.00
7930;BME280;4010;42.698;23.124;2023-06-04T01:28:41;31468.44;;;-140.64;100.00
7930;BME280;4010;42.698;23.124;2023-06-04T01:31:08;31211.63;;;-140.64;100.00
7930;BME280;4010;42.698;23.124;2023-06-04T01:33:35;32239.03;;;-140.64;100.00
7930;BME280;4010;42.698;23.124;2023-06-04T01:36:04;33266.75;;;-140.64;100.00
7930;BME280;4010;42.698;23.124;2023-06-04T01:38:31;34551.84;;;-140.64;100.00
7930;BME280;4010;42.698;23.124;2023-06-04T01:40:58;35323.13;;;-140.64;100.00
7930;BME280;4010;42.698;23.124;2023-06-04T01:43:27;34294.78;;;-140.64;100.00
7930;BME280;4010;42.698;23.124;2023-06-04T01:45:54;34294.78;;;-140.64;100.00
7930;BME280;4010;42.698;23.124;2023-06-04T01:48:21;33780.72;;;-140.64;100.00
7930;BME280;4010;42.698;23.124;2023-06-04T01:50:48;33523.72;;;-140.64;100.00
7930;BME280;4010;42.698;23.124;2023-06-04T01:53:16;34808.91;;;-140.64;100.00
7930;BME280;4010;42.698;23.124;2023-06-04T01:55:43;34037.75;;;-140.64;100.00
7930;BME280;4010;42.698;23.124;2023-06-04T01:58:10;32239.03;;;-140.64;100.00
7930;BME280;4010;42.698;23.124;2023-06-04T02:00:36;29671.09;;;-140.64;100.00
7930;BME280;4010;42.698;23.124;2023-06-04T02:03:03;28644.47;;;-140.64;100.00
7930;BME280;4010;42.698;23.124;2023-06-04T02:05:30;27874.72;;;-140.64;100.00
7930;BME280;4010;42.698;23.124;2023-06-04T02:07:57;26592.19;;;-140.64;100.00
7930;BME280;4010;42.698;23.124;2023-06-04T02:10:28;25310.16;;;-140.64;100.00
7930;BME280;4010;42.698;23.124;2023-06-04T02:12:56;25310.16;;;-140.64;100.00
7930;BME280;4010;42.698;23.124;2023-06-04T02:15:24;25310.16;;;-140.64;100.00
7930;BME280;4010;42.698;23.124;2023-06-04T02:17:58;25822.91;;;-140.64;100.00
7930;BME280;4010;42.698;23.124;2023-06-04T02:20:28;28131.28;;;-140.64;100.00
7930;BME280;4010;42.698;23.124;2023-06-04T02:22:55;29414.41;;;-140.64;100.00
7930;BME280;4010;42.698;23.124;2023-06-04T02:25:22;30698.03;;;-140.64;100.00
7930;BME280;4010;42.698;23.124;2023-06-04T02:27:50;31982.13;;;-140.64;100.00
7930;BME280;4010;42.698;23.124;2023-06-04T02:30:17;31468.44;;;-140.64;100.00
7930;BME280;4010;42.698;23.124;2023-06-04T02:32:43;32239.03;;;-140.64;100.00
7930;BME280;4010;42.698;23.124;2023-06-04T02:35:10;31211.63;;;-140.64;100.00
7930;BME280;4010;42.698;23.124;2023-06-04T02:37:37;30184.53;;;-140.64;100.00
7930;BME280;4010;42.698;23.124;2023-06-04T02:40:05;29671.09;;;-140.64;100.00
7930;BME280;4010;42.698;23.124;2023-06-04T02:42:32;30441.25;;;-140.64;100.00
7930;BME280;4010;42.698;23.124;2023-06-04T02:45:00;31725.28;;;-140.64;100.00
7930;BME280;4010;42.698;23.124;2023-06-04T02:47:27;32495.91;;;-140.64;100.00
7930;BME280;4010;42.698;23.124;2023-06-04T02:49:53;33009.78;;;-140.64;100.00
7930;BME280;4010;42.698;23.124;2023-06-04T02:52:20;32239.03;;;-140.64;100.00
7930;BME280;4010;42.698;23.124;2023-06-04T02:54:48;33266.75;;;-140.64;100.00
7930;BME280;4010;42.698;23.124;2023-06-04T02:57:14;32495.91;;;-140.64;100.00
7930;BME280;4010;42.698;23.124;2023-06-04T02:59:41;32495.91;;;-140.64;100.00
7930;BME280;4010;42.698;23.124;2023-06-04T03:02:09;34808.91;;;-140.64;100.00
7930;BME280;4010;42.698;23.124;2023-06-04T03:04:36;35580.28;;;-140.64;100.00
7930;BME280;4010;42.698;23.124;2023-06-04T03:07:03;36609.03;;;-140.64;100.00
7930;BME280;4010;42.698;23.124;2023-06-04T03:09:30;37638.09;;;-140.64;100.00
7930;BME280;4010;42.698;23.124;2023-06-04T03:11:59;37380.78;;;-140.64;100.00
7930;BME280;4010;42.698;23.124;2023-06-04T03:14:27;38152.72;;;-140.64;100.00
7930;BME280;4010;42.698;23.124;2023-06-04T03:16:58;38152.72;;;-140.64;100.00
7930;BME280;4010;42.698;23.124;2023-06-04T03:19:27;36351.81;;;-140.64;100.00
7930;BME280;4010;42.698;23.124;2023-06-04T03:21:54;35580.28;;;-140.64;100.00
7930;BME280;4010;42.698;23.124;2023-06-04T03:24:22;36351.81;;;-140.64;100.00
7930;BME280;4010;42.698;23.124;2023-06-04T03:26:48;36351.81;;;-140.64;100.00
7930;BME280;4010;42.698;23.124;2023-06-04T03:29:15;35323.13;;;-140.64;100.00
7930;BME280;4010;42.698;23.124;2023-06-04T03:31:44;34037.75;;;-140.64;100.00
7930;BME280;4010;42.698;23.124;2023-06-04T03:34:10;35323.13;;;-140.64;100.00
7930;BME280;4010;42.698;23.124;2023-06-04T03:36:39;35323.13;;;-140.64;100.00
7930;BME280;4010;42.698;23.124;2023-06-04T03:39:05;35580.28;;;-140.64;100.00
7930;BME280;4010;42.698;23.124;2023-06-04T03:41:32;35580.28;;;-140.64;100.00
7930;BME280;4010;42.698;23.124;2023-06-04T03:43:59;37638.09;;;-140.64;100.00
7930;BME280;4010;42.698;23.124;2023-06-04T03:46:25;38410.09;;;-140.64;100.00
7930;BME280;4010;42.698;23.124;2023-06-04T03:48:54;39439.72;;;-140.64;100.00
7930;BME280;4010;42.698;23.124;2023-06-04T03:51:21;46913.88;;;-140.64;100.00
7930;BME280;4010;42.698;23.124;2023-06-04T03:53:49;47688.00;;;-140.64;100.00
7930;BME280;4010;42.698;23.124;2023-06-04T03:56:16;45366.13;;;-140.64;100.00
7930;BME280;4010;42.698;23.124;2023-06-04T03:58:42;41757.50;;;-140.64;100.00
7930;BME280;4010;42.698;23.124;2023-06-04T04:01:09;45624.03;;;-140.64;100.00
7930;BME280;4010;42.698;23.124;2023-06-04T04:03:36;46913.88;;;-140.64;100.00
7930;BME280;4010;42.698;23.124;2023-06-04T04:06:03;46655.88;;;-140.64;100.00
7930;BME280;4010;42.698;23.124;2023-06-04T04:08:30;48978.63;;;-140.64;100.00
7930;BME280;4010;42.698;23.124;2023-06-04T04:10:58;48720.47;;;-140.64;100.00
7930;BME280;4010;42.698;23.124;2023-06-04T04:13:24;50528.03;;;-140.64;100.00
7930;BME280;4010;42.698;23.124;2023-06-04T04:15:51;51819.75;;;-140.64;100.00
7930;BME280;4010;42.698;23.124;2023-06-04T04:18:18;53887.50;;;-140.64;100.00
7930;BME280;4010;42.698;23.124;2023-06-04T04:20:45;53887.50;;;-140.64;100.00
7930;BME280;4010;42.698;23.124;2023-06-04T04:23:12;55697.81;;;-140.64;100.00
7930;BME280;4010;42.698;23.124;2023-06-04T04:25:39;55956.53;;;-140.64;100.00
7930;BME280;4010;42.698;23.124;2023-06-04T04:28:07;54146.06;;;-140.64;100.00
7930;BME280;4010;42.698;23.124;2023-06-04T04:30:34;52595.00;;;-140.64;100.00
7930;BME280;4010;42.698;23.124;2023-06-04T04:33:02;54146.06;;;-140.64;100.00
7930;BME280;4010;42.698;23.124;2023-06-04T04:35:30;53370.44;;;-140.64;100.00
7930;BME280;4010;42.698;23.124;2023-06-04T04:37:58;55180.50;;;-140.64;100.00
7930;BME280;4010;42.698;23.124;2023-06-04T04:40:24;58026.81;;;-140.64;100.00
7930;BME280;4010;42.698;23.124;2023-06-04T04:42:51;59062.44;;;-140.64;100.00
7930;BME280;4010;42.698;23.124;2023-06-04T04:45:19;61912.00;;;-140.64;100.00
7930;BME280;4010;42.698;23.124;2023-06-04T04:47:46;60098.38;;;-140.64;100.00
7930;BME280;4010;42.698;23.124;2023-06-04T04:50:13;59062.44;;;-140.64;100.00
7930;BME280;4010;42.698;23.124;2023-06-04T04:52:39;63467.31;;;-140.64;100.00
7930;BME280;4010;42.698;23.124;2023-06-04T04:55:07;69695.72;;;-140.64;100.00
7930;BME280;4010;42.698;23.124;2023-06-04T04:57:34;65801.63;;;-140.64;100.00
7930;BME280;4010;42.698;23.124;2023-06-04T05:00:01;64504.59;;;-140.64;100.00
7930;BME280;4010;42.698;23.124;2023-06-04T05:02:30;65023.34;;;-140.64;100.00
7930;BME280;4010;42.698;23.124;2023-06-04T05:04:57;66580.09;;;-140.64;100.00
7930;BME280;4010;42.698;23.124;2023-06-04T05:07:23;68656.84;;;-140.64;100.00
7930;BME280;4010;42.698;23.124;2023-06-04T05:09:50;72034.28;;;-140.64;100.00
7930;BME280;4010;42.698;23.124;2023-06-04T05:12:17;78538.72;;;-140.64;100.00
7930;BME280;4010;42.698;23.124;2023-06-04T05:14:44;69176.25;;;-140.64;100.00
7930;BME280;4010;42.698;23.124;2023-06-04T05:17:12;70215.25;;;-140.64;100.00
7930;BME280;4010;42.698;23.124;2023-06-04T05:19:43;62171.19;;;-140.64;100.00
7930;BME280;4010;42.698;23.124;2023-06-04T05:22:09;65282.75;;;-140.64;100.00
7930;BME280;4010;42.698;23.124;2023-06-04T05:24:36;68916.53;;;-140.64;100.00
7930;BME280;4010;42.698;23.124;2023-06-04T05:27:03;77236.84;;;-140.64;100.00
7930;BME280;4010;42.698;23.124;2023-06-04T05:29:30;86882.41;;;-140.64;100.00
7930;BME280;4010;42.698;23.124;2023-06-04T05:31:56;80622.75;;;-140.64;100.00
7930;BME280;4010;42.698;23.124;2023-06-04T05:34:23;88710.28;;;-140.64;100.00
7930;BME280;4010;42.698;23.124;2023-06-04T05:36:53;92630.41;;;-140.64;100.00
7930;BME280;4010;42.698;23.124;2023-06-04T05:39:21;87665.66;;;-140.64;100.00
7930;BME280;4010;42.698;23.124;2023-06-04T05:41:49;106517.09;;;-140.64;100.00
7930;BME280;4010;42.698;23.124;2023-06-04T05:44:16;118349.16;;;-140.64;100.00
7930;BME280;4010;42.698;23.124;2023-06-04T05:46:42;92891.91;;;-140.64;100.00
7930;BME280;4010;42.698;23.124;2023-06-04T05:49:09;82968.78;;;-140.64;100.00
7930;BME280;4010;42.698;23.124;2023-06-04T05:51:36;73594.22;;;-140.64;100.00
7930;BME280;4010;42.698;23.124;2023-06-04T05:54:04;73854.28;;;-140.64;100.00
7930;BME280;4010;42.698;23.124;2023-06-04T05:56:30;69435.97;;;-140.64;100.00
7930;BME280;4010;42.698;23.124;2023-06-04T05:58:57;78799.16;;;-140.64;100.00
7930;BME280;4010;42.698;23.124;2023-06-04T06:01:24;105992.06;;;-140.64;100.00
7930;BME280;4010;42.698;23.124;2023-06-04T06:03:50;103892.72;;;-140.64;100.00
7930;BME280;4010;42.698;23.124;2023-06-04T06:06:17;95769.72;;;-140.64;100.00
7930;BME280;4010;42.698;23.124;2023-06-04T06:08:46;100746.06;;;-140.64;100.00
7930;BME280;4010;42.698;23.124;2023-06-04T06:11:15;104679.81;;;-140.64;100.00
7930;BME280;4010;42.698;23.124;2023-06-04T06:13:41;110983.06;;;-140.64;100.00
7930;BME280;4010;42.698;23.124;2023-06-04T06:16:08;104155.06;;;-140.64;100.00
7930;BME280;4010;42.698;23.124;2023-06-04T06:18:36;117824.41;;;-140.64;100.00
7930;BME280;4010;42.698;23.124;2023-06-04T06:21:03;118349.16;;;-140.64;100.00
7930;BME280;4010;42.698;23.124;2023-06-04T06:23:29;118349.16;;;-140.64;100.00
7930;BME280;4010;42.698;23.124;2023-06-04T06:25:56;118349.16;;;-140.64;100.00
7930;BME280;4010;42.698;23.124;2023-06-04T06:28:25;118349.16;;;-140.64;100.00
7930;BME280;4010;42.698;23.124;2023-06-04T06:30:52;118349.16;;;-140.64;100.00
7930;BME280;4010;42.698;23.124;2023-06-04T06:33:18;118349.16;;;-140.64;100.00
7930;BME280;4010;42.698;23.124;2023-06-04T06:35:46;118349.16;;;-140.64;100.00
7930;BME280;4010;42.698;23.124;2023-06-04T06:38:13;118349.16;;;-140.64;100.00
7930;BME280;4010;42.698;23.124;2023-06-04T06:40:40;118349.16;;;-140.64;100.00
7930;BME280;4010;42.698;23.124;2023-06-04T06:43:07;118349.16;;;-140.64;100.00
7930;BME280;4010;42.698;23.124;2023-06-04T06:45:38;118349.16;;;-140.64;100.00
7930;BME280;4010;42.698;23.124;2023-06-04T06:48:05;118349.16;;;-140.64;100.00
7930;BME280;4010;42.698;23.124;2023-06-04T06:50:32;118349.16;;;-140.64;100.00
7930;BME280;4010;42.698;23.124;2023-06-04T06:53:00;118349.16;;;-140.64;100.00
7930;BME280;4010;42.698;23.124;2023-06-04T06:55:27;118349.16;;;-140.64;100.00
7930;BME280;4010;42.698;23.124;2023-06-04T06:57:54;118349.16;;;-140.64;100.00
7930;BME280;4010;42.698;23.124;2023-06-04T07:00:20;118349.16;;;-140.64;100.00
7930;BME280;4010;42.698;23.124;2023-06-04T07:02:49;118349.16;;;-140.64;100.00
7930;BME280;4010;42.698;23.124;2023-06-04T07:05:15;118349.16;;;-140.64;100.00
7930;BME280;4010;42.698;23.124;2023-06-04T07:07:43;118349.16;;;-140.64;100.00
7930;BME280;4010;42.698;23.124;2023-06-04T07:10:09;118349.16;;;-140.64;100.00
7930;BME280;4010;42.698;23.124;2023-06-04T07:12:36;118349.16;;;-140.64;100.00
7930;BME280;4010;42.698;23.124;2023-06-04T07:15:05;118349.16;;;-140.64;100.00
7930;BME280;4010;42.698;23.124;2023-06-04T07:17:32;118349.16;;;-140.64;100.00
7930;BME280;4010;42.698;23.124;2023-06-04T07:20:00;118349.16;;;-140.64;100.00
7930;BME280;4010;42.698;23.124;2023-06-04T07:22:26;118349.16;;;-140.64;100.00
7930;BME280;4010;42.698;23.124;2023-06-04T07:24:53;118349.16;;;-140.64;100.00
7930;BME280;4010;42.698;23.124;2023-06-04T07:27:20;118349.16;;;-140.64;100.00
7930;BME280;4010;42.698;23.124;2023-06-04T07:29:47;118349.16;;;-140.64;100.00
7930;BME280;4010;42.698;23.124;2023-06-04T07:32:14;118349.16;;;-140.64;100.00
7930;BME280;4010;42.698;23.124;2023-06-04T07:34:40;118349.16;;;-140.64;100.00
7930;BME280;4010;42.698;23.124;2023-06-04T07:37:08;118349.16;;;-140.64;100.00
7930;BME280;4010;42.698;23.124;2023-06-04T07:39:35;118349.16;;;-140.64;100.00
7930;BME280;4010;42.698;23.124;2023-06-04T07:42:03;118349.16;;;-140.64;100.00
7930;BME280;4010;42.698;23.124;2023-06-04T07:44:30;118349.16;;;-140.64;100.00
7930;BME280;4010;42.698;23.124;2023-06-04T07:46:57;118349.16;;;-140.64;100.00
7930;BME280;4010;42.698;23.124;2023-06-04T07:49:24;118349.16;;;-140.64;100.00
7930;BME280;4010;42.698;23.124;2023-06-04T07:51:50;118349.16;;;-140.64;100.00
7930;BME280;4010;42.698;23.124;2023-06-04T07:54:18;118349.16;;;-140.64;100.00
7930;BME280;4010;42.698;23.124;2023-06-04T07:56:45;118349.16;;;-140.64;100.00
7930;BME280;4010;42.698;23.124;2023-06-04T07:59:12;118349.16;;;-140.64;100.00
7930;BME280;4010;42.698;23.124;2023-06-04T08:01:39;118349.16;;;-140.64;100.00
7930;BME280;4010;42.698;23.124;2023-06-04T08:04:05;118349.16;;;-140.64;100.00
7930;BME280;4010;42.698;23.124;2023-06-04T08:06:32;118349.16;;;-140.64;100.00
7930;BME280;4010;42.698;23.124;2023-06-04T08:08:59;118349.16;;;-140.64;100.00
7930;BME280;4010;42.698;23.124;2023-06-04T08:11:27;118349.16;;;-140.64;100.00
7930;BME280;4010;42.698;23.124;2023-06-04T08:13:53;118349.16;;;-140.64;100.00
7930;BME280;4010;42.698;23.124;2023-06-04T08:16:20;118349.16;;;-140.64;100.00
7930;BME280;4010;42.698;23.124;2023-06-04T08:18:47;118349.16;;;-140.64;100.00
7930;BME280;4010;42.698;23.124;2023-06-04T08:21:13;118349.16;;;-140.64;100.00
7930;BME280;4010;42.698;23.124;2023-06-04T08:23:42;118349.16;;;-140.64;100.00
7930;BME280;4010;42.698;23.124;2023-06-04T08:26:09;118349.16;;;-140.64;100.00
7930;BME280;4010;42.698;23.124;2023-06-04T08:28:37;118349.16;;;-140.64;100.00
7930;BME280;4010;42.698;23.124;2023-06-04T08:31:04;118349.16;;;-140.64;100.00
7930;BME280;4010;42.698;23.124;2023-06-04T08:33:31;118349.16;;;-140.64;94.28
7930;BME280;4010;42.698;23.124;2023-06-04T08:35:57;118349.16;;;-140.64;96.81
7930;BME280;4010;42.698;23.124;2023-06-04T08:38:24;118349.16;;;-140.64;94.05
7930;BME280;4010;42.698;23.124;2023-06-04T08:40:52;118349.16;;;-140.64;88.27
7930;BME280;4010;42.698;23.124;2023-06-04T08:43:21;118349.16;;;-140.64;92.05
7930;BME280;4010;42.698;23.124;2023-06-04T08:45:50;118349.16;;;-140.64;90.93
7930;BME280;4010;42.698;23.124;2023-06-04T08:48:18;118349.16;;;-140.64;83.90
7930;BME280;4010;42.698;23.124;2023-06-04T08:50:47;118349.16;;;-140.64;90.52
7930;BME280;4010;42.698;23.124;2023-06-04T08:53:15;118349.16;;;-140.64;89.90
7930;BME280;4010;42.698;23.124;2023-06-04T08:55:42;118349.16;;;-140.64;86.54
7930;BME280;4010;42.698;23.124;2023-06-04T08:58:11;118349.16;;;-140.64;90.34
7930;BME280;4010;42.698;23.124;2023-06-04T09:00:38;118349.16;;;-140.64;86.22
7930;BME280;4010;42.698;23.124;2023-06-04T09:03:06;118349.16;;;-140.64;88.25
7930;BME280;4010;42.698;23.124;2023-06-04T09:05:34;118349.16;;;-140.64;88.65
7930;BME280;4010;42.698;23.124;2023-06-04T09:08:04;118349.16;;;-140.64;94.30
7930;BME280;4010;42.698;23.124;2023-06-04T09:10:34;118349.16;;;-140.64;88.33
7930;BME280;4010;42.698;23.124;2023-06-04T09:13:03;118349.16;;;-140.64;90.04
7930;BME280;4010;42.698;23.124;2023-06-04T09:15:32;118349.16;;;-140.64;94.34
7930;BME280;4010;42.698;23.124;2023-06-04T09:17:59;118349.16;;;-140.64;85.93
7930;BME280;4010;42.698;23.124;2023-06-04T09:20:28;118349.16;;;-140.64;83.30
7930;BME280;4010;42.698;23.124;2023-06-04T09:22:54;118349.16;;;-140.64;86.90
7930;BME280;4010;42.698;23.124;2023-06-04T09:25:22;118349.16;;;-140.64;91.17
7930;BME280;4010;42.698;23.124;2023-06-04T09:27:50;118349.16;;;-140.64;90.13
7930;BME280;4010;42.698;23.124;2023-06-04T09:30:17;118349.16;;;-140.64;89.57
7930;BME280;4010;42.698;23.124;2023-06-04T09:32:44;118349.16;;;-140.64;87.75
7930;BME280;4010;42.698;23.124;2023-06-04T09:35:12;118349.16;;;-140.64;91.08
7930;BME280;4010;42.698;23.124;2023-06-04T09:37:40;118349.16;;;-140.64;95.09
7930;BME280;4010;42.698;23.124;2023-06-04T09:40:09;118349.16;;;-140.64;93.17
7930;BME280;4010;42.698;23.124;2023-06-04T09:42:42;118349.16;;;-140.64;88.82
7930;BME280;4010;42.698;23.124;2023-06-04T09:45:09;118349.16;;;-140.64;89.73
7930;BME280;4010;42.698;23.124;2023-06-04T09:47:41;118349.16;;;-140.64;88.55
7930;BME280;4010;42.698;23.124;2023-06-04T09:50:08;118349.16;;;-140.64;87.48
7930;BME280;4010;42.698;23.124;2023-06-04T09:52:35;118349.16;;;-140.64;91.28
7930;BME280;4010;42.698;23.124;2023-06-04T09:55:15;118349.16;;;-140.64;87.70
7930;BME280;4010;42.698;23.124;2023-06-04T09:57:44;118349.16;;;-140.64;88.07
7930;BME280;4010;42.698;23.124;2023-06-04T10:00:14;118349.16;;;-140.64;88.11
7930;BME280;4010;42.698;23.124;2023-06-04T10:02:44;118349.16;;;-140.64;93.68
7930;BME280;4010;42.698;23.124;2023-06-04T10:05:11;118349.16;;;-140.64;88.49
7930;BME280;4010;42.698;23.124;2023-06-04T10:07:39;118349.16;;;-140.64;90.44
7930;BME280;4010;42.698;23.124;2023-06-04T10:10:11;118349.16;;;-140.64;89.75
7930;BME280;4010;42.698;23.124;2023-06-04T10:12:41;118349.16;;;-140.64;90.50
7930;BME280;4010;42.698;23.124;2023-06-04T10:15:10;118349.16;;;-140.64;90.57
7930;BME280;4010;42.698;23.124;2023-06-04T10:17:38;118349.16;;;-140.64;91.91
7930;BME280;4010;42.698;23.124;2023-06-04T10:20:07;118349.16;;;-140.64;90.86
7930;BME280;4010;42.698;23.124;2023-06-04T10:22:35;118349.16;;;-140.64;92.26
7930;BME280;4010;42.698;23.124;2023-06-04T10:25:01;118349.16;;;-140.64;93.62
7930;BME280;4010;42.698;23.124;2023-06-04T10:27:32;118349.16;;;-140.64;92.41
7930;BME280;4010;42.698;23.124;2023-06-04T10:30:01;118349.16;;;-140.64;90.50
7930;BME280;4010;42.698;23.124;2023-06-04T10:32:28;118349.16;;;-140.64;92.07
7930;BME280;4010;42.698;23.124;2023-06-04T10:34:56;118349.16;;;-140.64;88.93
7930;BME280;4010;42.698;23.124;2023-06-04T10:37:24;118349.16;;;-140.64;89.89
7930;BME280;4010;42.698;23.124;2023-06-04T10:39:52;118349.16;;;-140.64;95.24
7930;BME280;4010;42.698;23.124;2023-06-04T10:42:20;118349.16;;;-140.64;88.26
7930;BME280;4010;42.698;23.124;2023-06-04T10:44:50;118349.16;;;-140.64;91.87
7930;BME280;4010;42.698;23.124;2023-06-04T10:47:20;118349.16;;;-140.64;91.35
7930;BME280;4010;42.698;23.124;2023-06-04T10:49:49;118349.16;;;-140.64;92.38
7930;BME280;4010;42.698;23.124;2023-06-04T10:52:15;118349.16;;;-140.64;91.70
7930;BME280;4010;42.698;23.124;2023-06-04T10:54:43;118349.16;;;-140.64;91.49
7930;BME280;4010;42.698;23.124;2023-06-04T10:57:11;118349.16;;;-140.64;95.39
7930;BME280;4010;42.698;23.124;2023-06-04T10:59:38;118349.16;;;-140.64;92.27
7930;BME280;4010;42.698;23.124;2023-06-04T11:02:07;118349.16;;;-140.64;95.05
7930;BME280;4010;42.698;23.124;2023-06-04T11:04:35;118349.16;;;-140.64;94.38
7930;BME280;4010;42.698;23.124;2023-06-04T11:07:02;118349.16;;;-140.64;92.24
7930;BME280;4010;42.698;23.124;2023-06-04T11:09:30;118349.16;;;-140.64;92.21
7930;BME280;4010;42.698;23.124;2023-06-04T11:11:57;118349.16;;;-140.64;91.21
7930;BME280;4010;42.698;23.124;2023-06-04T11:14:24;118349.16;;;-140.64;90.43
7930;BME280;4010;42.698;23.124;2023-06-04T11:16:51;118349.16;;;-140.64;94.21
7930;BME280;4010;42.698;23.124;2023-06-04T11:19:19;118349.16;;;-140.64;89.72
7930;BME280;4010;42.698;23.124;2023-06-04T11:21:45;118349.16;;;-140.64;89.92
7930;BME280;4010;42.698;23.124;2023-06-04T11:24:12;118349.16;;;-140.64;90.88
7930;BME280;4010;42.698;23.124;2023-06-04T11:26:39;118349.16;;;-140.64;93.65
7930;BME280;4010;42.698;23.124;2023-06-04T11:29:07;118349.16;;;-140.64;88.70
7930;BME280;4010;42.698;23.124;2023-06-04T11:31:41;118349.16;;;-140.64;91.01
7930;BME280;4010;42.698;23.124;2023-06-04T11:34:08;118349.16;;;-140.64;92.04
7930;BME280;4010;42.698;23.124;2023-06-04T11:36:38;118349.16;;;-140.64;91.09
7930;BME280;4010;42.698;23.124;2023-06-04T11:39:05;118349.16;;;-140.64;90.82
7930;BME280;4010;42.698;23.124;2023-06-04T11:41:33;118349.16;;;-140.64;91.85
7930;BME280;4010;42.698;23.124;2023-06-04T11:44:02;118349.16;;;-140.64;92.50
7930;BME280;4010;42.698;23.124;2023-06-04T11:46:30;118349.16;;;-140.64;96.04
7930;BME280;4010;42.698;23.124;2023-06-04T11:48:57;118349.16;;;-140.64;92.18
7930;BME280;4010;42.698;23.124;2023-06-04T11:51:24;118349.16;;;-140.64;90.91
7930;BME280;4010;42.698;23.124;2023-06-04T11:53:52;118349.16;;;-140.64;92.50
7930;BME280;4010;42.698;23.124;2023-06-04T11:56:20;118349.16;;;-140.64;93.37
7930;BME280;4010;42.698;23.124;2023-06-04T11:58:47;118349.16;;;-140.64;93.31
7930;BME280;4010;42.698;23.124;2023-06-04T12:01:14;118349.16;;;-140.64;93.66
7930;BME280;4010;42.698;23.124;2023-06-04T12:03:42;118349.16;;;-140.64;95.64
7930;BME280;4010;42.698;23.124;2023-06-04T12:06:10;118349.16;;;-140.64;93.57
7930;BME280;4010;42.698;23.124;2023-06-04T12:08:45;118349.16;;;-140.64;93.42
7930;BME280;4010;42.698;23.124;2023-06-04T12:11:26;118349.16;;;-140.64;95.83
7930;BME280;4010;42.698;23.124;2023-06-04T12:13:54;118349.16;;;-140.64;93.52
7930;BME280;4010;42.698;23.124;2023-06-04T12:16:21;118349.16;;;-140.64;94.59
7930;BME280;4010;42.698;23.124;2023-06-04T12:18:48;118349.16;;;-140.64;93.52
7930;BME280;4010;42.698;23.124;2023-06-04T12:21:21;118349.16;;;-140.64;95.84
7930;BME280;4010;42.698;23.124;2023-06-04T12:23:53;118349.16;;;-140.64;91.26
7930;BME280;4010;42.698;23.124;2023-06-04T12:26:22;118349.16;;;-140.64;90.31
7930;BME280;4010;42.698;23.124;2023-06-04T12:28:59;118349.16;;;-140.64;93.18
7930;BME280;4010;42.698;23.124;2023-06-04T12:31:26;118349.16;;;-140.64;92.77
7930;BME280;4010;42.698;23.124;2023-06-04T12:33:57;118349.16;;;-140.64;92.11
7930;BME280;4010;42.698;23.124;2023-06-04T12:36:24;118349.16;;;-140.64;90.65
7930;BME280;4010;42.698;23.124;2023-06-04T12:38:51;118349.16;;;-140.64;89.42
7930;BME280;4010;42.698;23.124;2023-06-04T12:41:17;118349.16;;;-140.64;94.16